Gazi — 9HA2542 — position and weather

sailwx.info

Track history (hours):
 
Tides and Currents Weather Stations Pressure Air Temp Water Temp Dewpoint Dewpoint Depression Visibility Wind Speed Wind Dir Waves Ship Positions

Gazi

Last reported at 2016-Jul-29 16:07 UTC. Time now 2016-Jul-30 09:14 UTC.
Position N 45°40' E 030°54'.

Length 153 m; draft 9.3 m.

Type: Ship. MMSI: 248841000.

Date/timePositionNaut miles runAvg speedWind from/ knotsBaromVisibWave heightAir tempDewpointWater temp
2016-Jul-29 16:07N 45°40' E 030°54'712.0
2016-Jul-29 15:31N 45°47' E 030°57'2510.8
2016-Jul-29 13:12N 46°12' E 030°57'710.4
2016-Jul-29 12:32N 46°19' E 030°55'1111.2
2016-Jul-29 11:33N 46°30' E 030°55'12 8.0
2016-Jul-29 10:06N 46°35' E 031°11'611.0
2016-Jul-29 09:33N 46°35' E 031°20'11 9.5
2016-Jul-29 08:23N 46°35' E 031°36'810.2
2016-Jul-29 07:34N 46°36' E 031°48'9 8.9
2016-Jul-29 06:34N 46°43' E 031°56'8 8.0
2016-Jul-29 05:33N 46°51' E 031°57'6 6.0
2016-Jul-29 04:33N 46°56' E 031°59'0 0.2
2016-Jul-29 03:30N 46°57' E 031°59'0 0.0
2016-Jul-29 02:30N 46°57' E 031°59'0 0.0
2016-Jul-29 01:30N 46°57' E 031°59'0 0.0
2016-Jul-29 00:30N 46°57' E 031°59'0 0.0
2016-Jul-28 23:33N 46°57' E 031°59'0 0.0
2016-Jul-28 22:33N 46°57' E 031°59'0 0.0
2016-Jul-28 21:33N 46°57' E 031°59'0 0.0
2016-Jul-28 20:33N 46°57' E 031°59'0 0.0
2016-Jul-28 19:33N 46°57' E 031°59'0 0.0
2016-Jul-28 18:33N 46°57' E 031°59'0 0.0
2016-Jul-28 13:03N 46°57' E 031°59'0 0.0
2016-Jul-28 12:33N 46°57' E 031°59'0 0.0
2016-Jul-28 11:33N 46°57' E 031°59'0 0.0
2016-Jul-28 10:33N 46°57' E 031°59'0 0.0
2016-Jul-28 09:33N 46°57' E 031°59'0 0.0
2016-Jul-28 08:33N 46°57' E 031°59'0 0.0
2016-Jul-28 07:33N 46°57' E 031°59'0 0.0
2016-Jul-28 06:33N 46°57' E 031°59'0 0.0
2016-Jul-28 05:33N 46°57' E 031°59'0 0.0
2016-Jul-28 04:33N 46°57' E 031°59'0 0.0
2016-Jul-28 03:33N 46°57' E 031°59'0 0.0
2016-Jul-28 02:33N 46°57' E 031°59'0 0.0
2016-Jul-28 01:33N 46°57' E 031°59'0 0.0
2016-Jul-28 00:33N 46°57' E 031°59'0 0.0
2016-Jul-27 23:33N 46°57' E 031°59'0 0.0
2016-Jul-27 22:33N 46°57' E 031°59'0 0.0
2016-Jul-27 21:33N 46°57' E 031°59'0 0.0
2016-Jul-27 20:33N 46°57' E 031°59'0 0.0
2016-Jul-27 19:33N 46°57' E 031°59'0 0.0
2016-Jul-27 18:33N 46°57' E 031°59'0 0.0
2016-Jul-27 17:33N 46°57' E 031°59'0 0.0
2016-Jul-27 16:33N 46°57' E 031°59'0 0.0
2016-Jul-27 15:33N 46°57' E 031°59'0 0.0
2016-Jul-27 14:33N 46°57' E 031°59'0 0.0
2016-Jul-27 13:33N 46°57' E 031°59'0 0.0
2016-Jul-27 12:33N 46°57' E 031°59'0 0.0
2016-Jul-27 11:33N 46°57' E 031°59'0 0.0
2016-Jul-27 10:33N 46°57' E 031°59'0 0.0
2016-Jul-27 09:33N 46°57' E 031°59'0 0.0
2016-Jul-27 08:33N 46°57' E 031°59'0 0.0
2016-Jul-27 07:33N 46°57' E 031°59'0 0.0
2016-Jul-27 06:33N 46°57' E 031°59'0 0.0
2016-Jul-27 05:33N 46°57' E 031°59'0 0.0
2016-Jul-27 04:33N 46°57' E 031°59'0 0.0
2016-Jul-27 03:33N 46°57' E 031°59'0 0.0
2016-Jul-27 02:31N 46°57' E 031°59'0 0.0
2016-Jul-27 01:31N 46°57' E 031°59'0 0.0
2016-Jul-27 00:31N 46°57' E 031°59'0 0.0
2016-Jul-26 23:31N 46°57' E 031°59'0 0.0
2016-Jul-26 22:31N 46°57' E 031°59'0 0.0
2016-Jul-26 21:31N 46°57' E 031°59'0 0.0
2016-Jul-26 20:33N 46°57' E 031°59'0 0.0
2016-Jul-26 19:32N 46°57' E 031°59'0 0.0
2016-Jul-26 18:32N 46°57' E 031°59'0 0.0
2016-Jul-26 17:32N 46°57' E 031°59'0 0.0
2016-Jul-26 16:33N 46°57' E 031°59'0 0.0
2016-Jul-26 15:33N 46°57' E 031°59'0 0.0
2016-Jul-26 14:33N 46°57' E 031°59'0 0.0
2016-Jul-26 13:34N 46°57' E 031°59'0 0.0
2016-Jul-26 12:33N 46°57' E 031°59'0 0.0
2016-Jul-26 11:33N 46°57' E 031°59'0 0.0
2016-Jul-26 10:33N 46°57' E 031°59'0 0.0
2016-Jul-26 09:30N 46°57' E 031°59'0 0.0
2016-Jul-26 08:33N 46°57' E 031°59'0 0.0
2016-Jul-26 07:31N 46°57' E 031°59'0 0.0
2016-Jul-26 06:32N 46°57' E 031°59'0 0.0
2016-Jul-26 05:32N 46°57' E 031°59'0 0.0
2016-Jul-26 04:32N 46°57' E 031°59'0 0.0
2016-Jul-26 03:32N 46°57' E 031°59'0 0.0
2016-Jul-26 02:29N 46°57' E 031°59'0 0.0
2016-Jul-26 01:32N 46°57' E 031°59'0 0.0
2016-Jul-26 00:32N 46°57' E 031°59'0 0.0
2016-Jul-25 23:33N 46°57' E 031°59'0 0.0
2016-Jul-25 22:33N 46°57' E 031°59'0 0.0
2016-Jul-25 21:33N 46°57' E 031°59'0 0.0
2016-Jul-25 20:33N 46°57' E 031°59'0 0.0
2016-Jul-25 19:33N 46°57' E 031°59'0 0.0
2016-Jul-25 18:33N 46°57' E 031°59'0 0.0
2016-Jul-25 17:29N 46°57' E 031°59'0 0.0
2016-Jul-25 16:33N 46°57' E 031°59'0 0.0
2016-Jul-25 15:33N 46°57' E 031°59'0 0.0
2016-Jul-25 14:33N 46°57' E 031°59'0 0.0
2016-Jul-25 13:33N 46°57' E 031°59'0 0.0
2016-Jul-25 12:33N 46°57' E 031°59'0 0.0
2016-Jul-25 11:33N 46°57' E 031°59'0 0.0
2016-Jul-25 10:24N 46°57' E 031°59'0 0.0
2016-Jul-25 09:33N 46°57' E 031°59'0 0.0
2016-Jul-25 08:33N 46°57' E 031°59'0 0.0
2016-Jul-25 07:31N 46°57' E 031°59'1 1.6
2016-Jul-25 06:33N 46°56' E 032°01'8 8.0
2016-Jul-25 05:33N 46°49' E 031°55'9 8.6
2016-Jul-25 04:33N 46°41' E 031°56'1110.5
2016-Jul-25 03:33N 46°36' E 031°42'1110.6
2016-Jul-25 02:29N 46°35' E 031°26'19 9.8
2016-Jul-25 00:33N 46°33' E 030°59'8 7.4
2016-Jul-24 23:31N 46°25' E 030°57'  
Track history (hours):
 
Tides and Currents Weather Stations Pressure Air Temp Water Temp Dewpoint Dewpoint Depression Visibility Wind Speed Wind Dir Waves Ship Positions

Gazi

Last reported at 2016-Jul-29 16:07 UTC. Time now 2016-Jul-30 09:14 UTC.
Position N 45°40' E 030°54'.

Length 153 m; draft 9.3 m.

Type: Ship. MMSI: 248841000.

Date/timePositionNaut miles runAvg speedWind from/ knotsBaromVisibWave heightAir tempDewpointWater temp
2016-Jul-29 16:07N 45°40' E 030°54'712.0
2016-Jul-29 15:31N 45°47' E 030°57'2510.8
2016-Jul-29 13:12N 46°12' E 030°57'710.4
2016-Jul-29 12:32N 46°19' E 030°55'1111.2
2016-Jul-29 11:33N 46°30' E 030°55'12 8.0
2016-Jul-29 10:06N 46°35' E 031°11'611.0
2016-Jul-29 09:33N 46°35' E 031°20'11 9.5
2016-Jul-29 08:23N 46°35' E 031°36'810.2
2016-Jul-29 07:34N 46°36' E 031°48'9 8.9
2016-Jul-29 06:34N 46°43' E 031°56'8 8.0
2016-Jul-29 05:33N 46°51' E 031°57'6 6.0
2016-Jul-29 04:33N 46°56' E 031°59'0 0.2
2016-Jul-29 03:30N 46°57' E 031°59'0 0.0
2016-Jul-29 02:30N 46°57' E 031°59'0 0.0
2016-Jul-29 01:30N 46°57' E 031°59'0 0.0
2016-Jul-29 00:30N 46°57' E 031°59'0 0.0
2016-Jul-28 23:33N 46°57' E 031°59'0 0.0
2016-Jul-28 22:33N 46°57' E 031°59'0 0.0
2016-Jul-28 21:33N 46°57' E 031°59'0 0.0
2016-Jul-28 20:33N 46°57' E 031°59'0 0.0
2016-Jul-28 19:33N 46°57' E 031°59'0 0.0
2016-Jul-28 18:33N 46°57' E 031°59'0 0.0
2016-Jul-28 13:03N 46°57' E 031°59'0 0.0
2016-Jul-28 12:33N 46°57' E 031°59'0 0.0
2016-Jul-28 11:33N 46°57' E 031°59'0 0.0
2016-Jul-28 10:33N 46°57' E 031°59'0 0.0
2016-Jul-28 09:33N 46°57' E 031°59'0 0.0
2016-Jul-28 08:33N 46°57' E 031°59'0 0.0
2016-Jul-28 07:33N 46°57' E 031°59'0 0.0
2016-Jul-28 06:33N 46°57' E 031°59'0 0.0
2016-Jul-28 05:33N 46°57' E 031°59'0 0.0
2016-Jul-28 04:33N 46°57' E 031°59'0 0.0
2016-Jul-28 03:33N 46°57' E 031°59'0 0.0
2016-Jul-28 02:33N 46°57' E 031°59'0 0.0
2016-Jul-28 01:33N 46°57' E 031°59'0 0.0
2016-Jul-28 00:33N 46°57' E 031°59'0 0.0
2016-Jul-27 23:33N 46°57' E 031°59'0 0.0
2016-Jul-27 22:33N 46°57' E 031°59'0 0.0
2016-Jul-27 21:33N 46°57' E 031°59'0 0.0
2016-Jul-27 20:33N 46°57' E 031°59'0 0.0
2016-Jul-27 19:33N 46°57' E 031°59'0 0.0
2016-Jul-27 18:33N 46°57' E 031°59'0 0.0
2016-Jul-27 17:33N 46°57' E 031°59'0 0.0
2016-Jul-27 16:33N 46°57' E 031°59'0 0.0
2016-Jul-27 15:33N 46°57' E 031°59'0 0.0
2016-Jul-27 14:33N 46°57' E 031°59'0 0.0
2016-Jul-27 13:33N 46°57' E 031°59'0 0.0
2016-Jul-27 12:33N 46°57' E 031°59'0 0.0
2016-Jul-27 11:33N 46°57' E 031°59'0 0.0
2016-Jul-27 10:33N 46°57' E 031°59'0 0.0
2016-Jul-27 09:33N 46°57' E 031°59'0 0.0
2016-Jul-27 08:33N 46°57' E 031°59'0 0.0
2016-Jul-27 07:33N 46°57' E 031°59'0 0.0
2016-Jul-27 06:33N 46°57' E 031°59'0 0.0
2016-Jul-27 05:33N 46°57' E 031°59'0 0.0
2016-Jul-27 04:33N 46°57' E 031°59'0 0.0
2016-Jul-27 03:33N 46°57' E 031°59'0 0.0
2016-Jul-27 02:31N 46°57' E 031°59'0 0.0
2016-Jul-27 01:31N 46°57' E 031°59'0 0.0
2016-Jul-27 00:31N 46°57' E 031°59'0 0.0
2016-Jul-26 23:31N 46°57' E 031°59'0 0.0
2016-Jul-26 22:31N 46°57' E 031°59'0 0.0
2016-Jul-26 21:31N 46°57' E 031°59'0 0.0
2016-Jul-26 20:33N 46°57' E 031°59'0 0.0
2016-Jul-26 19:32N 46°57' E 031°59'0 0.0
2016-Jul-26 18:32N 46°57' E 031°59'0 0.0
2016-Jul-26 17:32N 46°57' E 031°59'0 0.0
2016-Jul-26 16:33N 46°57' E 031°59'0 0.0
2016-Jul-26 15:33N 46°57' E 031°59'0 0.0
2016-Jul-26 14:33N 46°57' E 031°59'0 0.0
2016-Jul-26 13:34N 46°57' E 031°59'0 0.0
2016-Jul-26 12:33N 46°57' E 031°59'0 0.0
2016-Jul-26 11:33N 46°57' E 031°59'0 0.0
2016-Jul-26 10:33N 46°57' E 031°59'0 0.0
2016-Jul-26 09:30N 46°57' E 031°59'0 0.0
2016-Jul-26 08:33N 46°57' E 031°59'0 0.0
2016-Jul-26 07:31N 46°57' E 031°59'0 0.0
2016-Jul-26 06:32N 46°57' E 031°59'0 0.0
2016-Jul-26 05:32N 46°57' E 031°59'0 0.0
2016-Jul-26 04:32N 46°57' E 031°59'0 0.0
2016-Jul-26 03:32N 46°57' E 031°59'0 0.0
2016-Jul-26 02:29N 46°57' E 031°59'0 0.0
2016-Jul-26 01:32N 46°57' E 031°59'0 0.0
2016-Jul-26 00:32N 46°57' E 031°59'0 0.0
2016-Jul-25 23:33N 46°57' E 031°59'0 0.0
2016-Jul-25 22:33N 46°57' E 031°59'0 0.0
2016-Jul-25 21:33N 46°57' E 031°59'0 0.0
2016-Jul-25 20:33N 46°57' E 031°59'0 0.0
2016-Jul-25 19:33N 46°57' E 031°59'0 0.0
2016-Jul-25 18:33N 46°57' E 031°59'0 0.0
2016-Jul-25 17:29N 46°57' E 031°59'0 0.0
2016-Jul-25 16:33N 46°57' E 031°59'0 0.0
2016-Jul-25 15:33N 46°57' E 031°59'0 0.0
2016-Jul-25 14:33N 46°57' E 031°59'0 0.0
2016-Jul-25 13:33N 46°57' E 031°59'0 0.0
2016-Jul-25 12:33N 46°57' E 031°59'0 0.0
2016-Jul-25 11:33N 46°57' E 031°59'0 0.0
2016-Jul-25 10:24N 46°57' E 031°59'0 0.0
2016-Jul-25 09:33N 46°57' E 031°59'0 0.0
2016-Jul-25 08:33N 46°57' E 031°59'0 0.0
2016-Jul-25 07:31N 46°57' E 031°59'1 1.6
2016-Jul-25 06:33N 46°56' E 032°01'8 8.0
2016-Jul-25 05:33N 46°49' E 031°55'9 8.6
2016-Jul-25 04:33N 46°41' E 031°56'1110.5
2016-Jul-25 03:33N 46°36' E 031°42'1110.6
2016-Jul-25 02:29N 46°35' E 031°26'19 9.8
2016-Jul-25 00:33N 46°33' E 030°59'8 7.4
2016-Jul-24 23:31N 46°25' E 030°57'  

Dump ship's entire track history